sensor_id;sensor_type;location;lat;lon;timestamp;temperature;humidity
69084;SHT31;56185;48.526;9.044;2022-12-11T00:00:33;-0.62;79.47
69084;SHT31;56185;48.526;9.044;2022-12-11T00:02:58;-0.50;78.92
69084;SHT31;56185;48.526;9.044;2022-12-11T00:05:24;-0.47;79.34
69084;SHT31;56185;48.526;9.044;2022-12-11T00:07:49;-0.50;79.57
69084;SHT31;56185;48.526;9.044;2022-12-11T00:10:14;-0.35;79.56
69084;SHT31;56185;48.526;9.044;2022-12-11T00:12:39;-0.14;77.78
69084;SHT31;56185;48.526;9.044;2022-12-11T00:15:05;-0.40;79.91
69084;SHT31;56185;48.526;9.044;2022-12-11T00:17:30;-0.48;79.07
69084;SHT31;56185;48.526;9.044;2022-12-11T00:19:56;-0.54;78.92
69084;SHT31;56185;48.526;9.044;2022-12-11T00:22:21;-0.57;78.97
69084;SHT31;56185;48.526;9.044;2022-12-11T00:24:46;-0.55;79.91
69084;SHT31;56185;48.526;9.044;2022-12-11T00:27:12;-0.55;79.40
69084;SHT31;56185;48.526;9.044;2022-12-11T00:29:37;-0.72;80.59
69084;SHT31;56185;48.526;9.044;2022-12-11T00:32:03;-0.97;80.42
69084;SHT31;56185;48.526;9.044;2022-12-11T00:34:28;-1.09;80.81
69084;SHT31;56185;48.526;9.044;2022-12-11T00:36:53;-1.14;81.04
69084;SHT31;56185;48.526;9.044;2022-12-11T00:39:19;-1.24;81.31
69084;SHT31;56185;48.526;9.044;2022-12-11T00:41:44;-1.26;81.73
69084;SHT31;56185;48.526;9.044;2022-12-11T00:44:09;-0.99;80.90
69084;SHT31;56185;48.526;9.044;2022-12-11T00:46:34;-1.10;81.41
69084;SHT31;56185;48.526;9.044;2022-12-11T00:48:59;-1.06;81.24
69084;SHT31;56185;48.526;9.044;2022-12-11T00:51:25;-1.06;81.57
69084;SHT31;56185;48.526;9.044;2022-12-11T00:53:50;-1.17;81.13
69084;SHT31;56185;48.526;9.044;2022-12-11T00:56:18;-1.09;80.80
69084;SHT31;56185;48.526;9.044;2022-12-11T00:58:45;-1.17;81.16
69084;SHT31;56185;48.526;9.044;2022-12-11T01:01:14;-1.14;82.00
69084;SHT31;56185;48.526;9.044;2022-12-11T01:03:40;-1.17;82.49
69084;SHT31;56185;48.526;9.044;2022-12-11T01:06:06;-1.29;82.67
69084;SHT31;56185;48.526;9.044;2022-12-11T01:08:31;-1.23;81.80
69084;SHT31;56185;48.526;9.044;2022-12-11T01:11:02;-1.33;82.03
69084;SHT31;56185;48.526;9.044;2022-12-11T01:13:28;-1.39;83.10
69084;SHT31;56185;48.526;9.044;2022-12-11T01:15:53;-1.33;82.92
69084;SHT31;56185;48.526;9.044;2022-12-11T01:18:18;-1.23;81.67
69084;SHT31;56185;48.526;9.044;2022-12-11T01:20:44;-1.16;81.31
69084;SHT31;56185;48.526;9.044;2022-12-11T01:23:11;-1.12;81.89
69084;SHT31;56185;48.526;9.044;2022-12-11T01:25:36;-1.23;82.49
69084;SHT31;56185;48.526;9.044;2022-12-11T01:28:02;-1.23;82.66
69084;SHT31;56185;48.526;9.044;2022-12-11T01:30:27;-1.26;81.83
69084;SHT31;56185;48.526;9.044;2022-12-11T01:32:53;-1.23;81.52
69084;SHT31;56185;48.526;9.044;2022-12-11T01:35:18;-1.10;81.57
69084;SHT31;56185;48.526;9.044;2022-12-11T01:37:44;-1.17;81.30
69084;SHT31;56185;48.526;9.044;2022-12-11T01:40:13;-0.95;81.24
69084;SHT31;56185;48.526;9.044;2022-12-11T01:42:38;-0.83;80.15
69084;SHT31;56185;48.526;9.044;2022-12-11T01:45:28;-0.83;79.23
69084;SHT31;56185;48.526;9.044;2022-12-11T01:48:00;-0.68;79.41
69084;SHT31;56185;48.526;9.044;2022-12-11T01:50:27;-1.02;79.76
69084;SHT31;56185;48.526;9.044;2022-12-11T01:52:52;-0.99;79.61
69084;SHT31;56185;48.526;9.044;2022-12-11T01:55:19;-0.86;79.60
69084;SHT31;56185;48.526;9.044;2022-12-11T01:57:47;-1.06;80.19
69084;SHT31;56185;48.526;9.044;2022-12-11T02:00:14;-0.91;80.58
69084;SHT31;56185;48.526;9.044;2022-12-11T02:02:39;-0.89;79.95
69084;SHT31;56185;48.526;9.044;2022-12-11T02:05:05;-0.66;79.78
69084;SHT31;56185;48.526;9.044;2022-12-11T02:07:37;-0.69;79.00
69084;SHT31;56185;48.526;9.044;2022-12-11T02:10:03;-0.81;79.48
69084;SHT31;56185;48.526;9.044;2022-12-11T02:12:47;-0.82;79.59
69084;SHT31;56185;48.526;9.044;2022-12-11T02:15:32;-0.96;80.05
69084;SHT31;56185;48.526;9.044;2022-12-11T02:18:27;-0.66;78.94
69084;SHT31;56185;48.526;9.044;2022-12-11T02:21:06;-0.72;79.17
69084;SHT31;56185;48.526;9.044;2022-12-11T02:26:49;-0.71;79.71
69084;SHT31;56185;48.526;9.044;2022-12-11T02:29:23;-0.82;79.24
69084;SHT31;56185;48.526;9.044;2022-12-11T02:31:56;-0.88;79.72
69084;SHT31;56185;48.526;9.044;2022-12-11T02:34:27;-0.89;80.24
69084;SHT31;56185;48.526;9.044;2022-12-11T02:36:58;-0.92;79.94
69084;SHT31;56185;48.526;9.044;2022-12-11T02:39:25;-0.95;80.64
69084;SHT31;56185;48.526;9.044;2022-12-11T02:41:52;-0.92;80.51
69084;SHT31;56185;48.526;9.044;2022-12-11T02:44:21;-1.00;80.88
69084;SHT31;56185;48.526;9.044;2022-12-11T02:46:48;-0.89;80.55
69084;SHT31;56185;48.526;9.044;2022-12-11T02:49:15;-0.82;80.01
69084;SHT31;56185;48.526;9.044;2022-12-11T02:51:42;-0.75;79.65
69084;SHT31;56185;48.526;9.044;2022-12-11T02:54:11;-0.79;79.97
69084;SHT31;56185;48.526;9.044;2022-12-11T02:56:46;-0.78;79.50
69084;SHT31;56185;48.526;9.044;2022-12-11T02:59:18;-0.69;79.41
69084;SHT31;56185;48.526;9.044;2022-12-11T03:01:45;-0.58;80.17
69084;SHT31;56185;48.526;9.044;2022-12-11T03:04:10;-0.60;79.63
69084;SHT31;56185;48.526;9.044;2022-12-11T03:06:40;-0.66;79.63
69084;SHT31;56185;48.526;9.044;2022-12-11T03:09:08;-0.57;79.68
69084;SHT31;56185;48.526;9.044;2022-12-11T03:11:33;-0.55;80.24
69084;SHT31;56185;48.526;9.044;2022-12-11T03:13:59;-0.48;79.22
69084;SHT31;56185;48.526;9.044;2022-12-11T03:19:01;-0.48;78.52
69084;SHT31;56185;48.526;9.044;2022-12-11T03:21:58;-0.57;78.55
69084;SHT31;56185;48.526;9.044;2022-12-11T03:24:36;-0.61;78.70
69084;SHT31;56185;48.526;9.044;2022-12-11T03:27:13;-0.58;79.13
69084;SHT31;56185;48.526;9.044;2022-12-11T03:29:44;-0.58;79.66
69084;SHT31;56185;48.526;9.044;2022-12-11T03:32:13;-0.55;79.28
69084;SHT31;56185;48.526;9.044;2022-12-11T03:34:45;-0.78;79.87
69084;SHT31;56185;48.526;9.044;2022-12-11T03:37:16;-0.72;79.80
69084;SHT31;56185;48.526;9.044;2022-12-11T03:39:48;-0.68;79.85
69084;SHT31;56185;48.526;9.044;2022-12-11T03:42:14;-0.85;80.04
69084;SHT31;56185;48.526;9.044;2022-12-11T03:44:42;-0.75;80.89
69084;SHT31;56185;48.526;9.044;2022-12-11T03:47:10;-1.00;80.96
69084;SHT31;56185;48.526;9.044;2022-12-11T03:49:40;-0.99;80.50
69084;SHT31;56185;48.526;9.044;2022-12-11T03:52:08;-1.10;80.53
69084;SHT31;56185;48.526;9.044;2022-12-11T03:54:35;-1.04;80.68
69084;SHT31;56185;48.526;9.044;2022-12-11T03:57:03;-1.04;80.74
69084;SHT31;56185;48.526;9.044;2022-12-11T03:59:28;-1.12;80.67
69084;SHT31;56185;48.526;9.044;2022-12-11T04:01:54;-1.26;81.27
69084;SHT31;56185;48.526;9.044;2022-12-11T04:04:19;-1.33;81.69
69084;SHT31;56185;48.526;9.044;2022-12-11T04:06:44;-1.30;81.14
69084;SHT31;56185;48.526;9.044;2022-12-11T04:09:10;-1.31;81.08
69084;SHT31;56185;48.526;9.044;2022-12-11T04:11:35;-1.27;81.30
69084;SHT31;56185;48.526;9.044;2022-12-11T04:14:06;-1.13;81.19
69084;SHT31;56185;48.526;9.044;2022-12-11T04:16:32;-1.07;80.37
69084;SHT31;56185;48.526;9.044;2022-12-11T04:18:57;-1.33;80.67
69084;SHT31;56185;48.526;9.044;2022-12-11T04:21:22;-1.34;81.62
69084;SHT31;56185;48.526;9.044;2022-12-11T04:23:49;-1.51;81.87
69084;SHT31;56185;48.526;9.044;2022-12-11T04:26:17;-1.60;82.04
69084;SHT31;56185;48.526;9.044;2022-12-11T04:28:44;-1.72;82.34
69084;SHT31;56185;48.526;9.044;2022-12-11T04:31:14;-1.68;81.95
69084;SHT31;56185;48.526;9.044;2022-12-11T04:33:40;-1.78;82.29
69084;SHT31;56185;48.526;9.044;2022-12-11T04:36:06;-1.77;82.40
69084;SHT31;56185;48.526;9.044;2022-12-11T04:38:31;-1.78;82.58
69084;SHT31;56185;48.526;9.044;2022-12-11T04:41:02;-1.82;82.45
69084;SHT31;56185;48.526;9.044;2022-12-11T04:43:28;-1.86;82.05
69084;SHT31;56185;48.526;9.044;2022-12-11T04:46:20;-1.81;81.65
69084;SHT31;56185;48.526;9.044;2022-12-11T04:48:47;-1.61;81.94
69084;SHT31;56185;48.526;9.044;2022-12-11T04:51:13;-1.54;81.59
69084;SHT31;56185;48.526;9.044;2022-12-11T04:53:38;-1.47;80.57
69084;SHT31;56185;48.526;9.044;2022-12-11T04:56:08;-1.52;80.85
69084;SHT31;56185;48.526;9.044;2022-12-11T04:58:35;-1.41;80.85
69084;SHT31;56185;48.526;9.044;2022-12-11T05:01:15;-1.33;80.27
69084;SHT31;56185;48.526;9.044;2022-12-11T05:03:41;-1.33;79.91
69084;SHT31;56185;48.526;9.044;2022-12-11T05:06:08;-1.43;80.55
69084;SHT31;56185;48.526;9.044;2022-12-11T05:08:35;-1.58;81.25
69084;SHT31;56185;48.526;9.044;2022-12-11T05:11:03;-1.39;81.11
69084;SHT31;56185;48.526;9.044;2022-12-11T05:13:29;-1.29;80.32
69084;SHT31;56185;48.526;9.044;2022-12-11T05:15:54;-1.58;81.62
69084;SHT31;56185;48.526;9.044;2022-12-11T05:18:20;-1.43;81.17
69084;SHT31;56185;48.526;9.044;2022-12-11T05:20:57;-1.27;80.22
69084;SHT31;56185;48.526;9.044;2022-12-11T05:23:23;-1.44;80.56
69084;SHT31;56185;48.526;9.044;2022-12-11T05:25:56;-1.52;81.55
69084;SHT31;56185;48.526;9.044;2022-12-11T05:28:22;-1.13;81.01
69084;SHT31;56185;48.526;9.044;2022-12-11T05:30:48;-1.36;81.38
69084;SHT31;56185;48.526;9.044;2022-12-11T05:33:13;-1.47;81.11
69084;SHT31;56185;48.526;9.044;2022-12-11T05:35:38;-1.48;81.14
69084;SHT31;56185;48.526;9.044;2022-12-11T05:38:04;-1.43;80.88
69084;SHT31;56185;48.526;9.044;2022-12-11T05:40:29;-1.36;80.53
69084;SHT31;56185;48.526;9.044;2022-12-11T05:42:54;-1.24;79.47
69084;SHT31;56185;48.526;9.044;2022-12-11T05:45:19;-1.43;80.28
69084;SHT31;56185;48.526;9.044;2022-12-11T05:47:45;-1.50;81.35
69084;SHT31;56185;48.526;9.044;2022-12-11T05:50:10;-1.46;80.64
69084;SHT31;56185;48.526;9.044;2022-12-11T05:52:35;-1.55;80.83
69084;SHT31;56185;48.526;9.044;2022-12-11T05:55:00;-1.44;80.26
69084;SHT31;56185;48.526;9.044;2022-12-11T05:57:26;-1.47;80.51
69084;SHT31;56185;48.526;9.044;2022-12-11T05:59:51;-1.46;80.19
69084;SHT31;56185;48.526;9.044;2022-12-11T06:02:17;-1.37;79.59
69084;SHT31;56185;48.526;9.044;2022-12-11T06:04:42;-1.30;79.39
69084;SHT31;56185;48.526;9.044;2022-12-11T06:07:07;-1.40;79.44
69084;SHT31;56185;48.526;9.044;2022-12-11T06:09:33;-1.51;79.87
69084;SHT31;56185;48.526;9.044;2022-12-11T06:11:58;-1.68;80.70
69084;SHT31;56185;48.526;9.044;2022-12-11T06:14:23;-1.77;81.34
69084;SHT31;56185;48.526;9.044;2022-12-11T06:16:48;-1.72;80.40
69084;SHT31;56185;48.526;9.044;2022-12-11T06:19:14;-1.95;81.86
69084;SHT31;56185;48.526;9.044;2022-12-11T06:21:40;-1.99;82.48
69084;SHT31;56185;48.526;9.044;2022-12-11T06:24:05;-1.93;81.53
69084;SHT31;56185;48.526;9.044;2022-12-11T06:26:31;-2.10;82.09
69084;SHT31;56185;48.526;9.044;2022-12-11T06:31:21;-2.19;82.68
69084;SHT31;56185;48.526;9.044;2022-12-11T06:33:47;-2.10;82.23
69084;SHT31;56185;48.526;9.044;2022-12-11T06:36:15;-2.32;82.10
69084;SHT31;56185;48.526;9.044;2022-12-11T06:38:40;-2.37;82.01
69084;SHT31;56185;48.526;9.044;2022-12-11T06:41:07;-2.44;82.34
69084;SHT31;56185;48.526;9.044;2022-12-11T06:43:34;-2.51;82.54
69084;SHT31;56185;48.526;9.044;2022-12-11T06:46:17;-2.57;83.32
69084;SHT31;56185;48.526;9.044;2022-12-11T06:48:43;-2.61;82.56
69084;SHT31;56185;48.526;9.044;2022-12-11T06:51:12;-2.54;82.20
69084;SHT31;56185;48.526;9.044;2022-12-11T06:53:38;-2.60;82.02
69084;SHT31;56185;48.526;9.044;2022-12-11T06:56:05;-2.39;81.95
69084;SHT31;56185;48.526;9.044;2022-12-11T06:58:33;-2.43;81.04
69084;SHT31;56185;48.526;9.044;2022-12-11T07:00:58;-2.57;82.06
69084;SHT31;56185;48.526;9.044;2022-12-11T07:03:23;-2.51;81.55
69084;SHT31;56185;48.526;9.044;2022-12-11T07:05:49;-2.71;82.15
69084;SHT31;56185;48.526;9.044;2022-12-11T07:08:14;-2.85;82.50
69084;SHT31;56185;48.526;9.044;2022-12-11T07:10:39;-2.72;82.10
69084;SHT31;56185;48.526;9.044;2022-12-11T07:13:05;-2.74;82.04
69084;SHT31;56185;48.526;9.044;2022-12-11T07:15:30;-2.91;82.60
69084;SHT31;56185;48.526;9.044;2022-12-11T07:17:55;-2.75;82.03
69084;SHT31;56185;48.526;9.044;2022-12-11T07:20:21;-2.78;81.81
69084;SHT31;56185;48.526;9.044;2022-12-11T07:22:46;-2.74;81.20
69084;SHT31;56185;48.526;9.044;2022-12-11T07:25:11;-2.74;82.44
69084;SHT31;56185;48.526;9.044;2022-12-11T07:27:37;-2.70;81.75
69084;SHT31;56185;48.526;9.044;2022-12-11T07:30:02;-2.82;82.00
69084;SHT31;56185;48.526;9.044;2022-12-11T07:32:28;-2.71;82.18
69084;SHT31;56185;48.526;9.044;2022-12-11T07:34:53;-2.62;81.14
69084;SHT31;56185;48.526;9.044;2022-12-11T07:37:18;-2.56;81.43
69084;SHT31;56185;48.526;9.044;2022-12-11T07:39:44;-2.50;80.54
69084;SHT31;56185;48.526;9.044;2022-12-11T07:42:09;-2.29;80.57
69084;SHT31;56185;48.526;9.044;2022-12-11T07:44:34;-2.06;79.04
69084;SHT31;56185;48.526;9.044;2022-12-11T07:46:59;-2.22;79.42
69084;SHT31;56185;48.526;9.044;2022-12-11T07:49:24;-2.37;80.46
69084;SHT31;56185;48.526;9.044;2022-12-11T07:51:50;-2.56;81.27
69084;SHT31;56185;48.526;9.044;2022-12-11T07:54:15;-2.23;80.06
69084;SHT31;56185;48.526;9.044;2022-12-11T07:56:45;-2.22;80.01
69084;SHT31;56185;48.526;9.044;2022-12-11T07:59:11;-2.22;79.70
69084;SHT31;56185;48.526;9.044;2022-12-11T08:01:37;-2.25;80.36
69084;SHT31;56185;48.526;9.044;2022-12-11T08:04:08;-2.09;79.42
69084;SHT31;56185;48.526;9.044;2022-12-11T08:06:36;-1.98;79.02
69084;SHT31;56185;48.526;9.044;2022-12-11T08:09:05;-1.81;78.57
69084;SHT31;56185;48.526;9.044;2022-12-11T08:11:30;-1.79;78.83
69084;SHT31;56185;48.526;9.044;2022-12-11T08:13:57;-1.64;77.95
69084;SHT31;56185;48.526;9.044;2022-12-11T08:16:22;-1.72;77.67
69084;SHT31;56185;48.526;9.044;2022-12-11T08:18:47;-1.74;78.00
69084;SHT31;56185;48.526;9.044;2022-12-11T08:21:15;-1.72;79.24
69084;SHT31;56185;48.526;9.044;2022-12-11T08:23:41;-1.65;78.14
69084;SHT31;56185;48.526;9.044;2022-12-11T08:26:10;-1.61;77.90
69084;SHT31;56185;48.526;9.044;2022-12-11T08:28:36;-1.57;77.74
69084;SHT31;56185;48.526;9.044;2022-12-11T08:31:06;-1.54;77.69
69084;SHT31;56185;48.526;9.044;2022-12-11T08:33:31;-1.55;77.52
69084;SHT31;56185;48.526;9.044;2022-12-11T08:35:57;-1.57;77.77
69084;SHT31;56185;48.526;9.044;2022-12-11T08:38:22;-1.50;77.79
69084;SHT31;56185;48.526;9.044;2022-12-11T08:40:47;-1.50;77.98
69084;SHT31;56185;48.526;9.044;2022-12-11T08:43:12;-1.47;77.33
69084;SHT31;56185;48.526;9.044;2022-12-11T08:45:38;-1.51;77.49
69084;SHT31;56185;48.526;9.044;2022-12-11T08:48:03;-1.40;78.54
69084;SHT31;56185;48.526;9.044;2022-12-11T08:50:28;-1.26;77.57
69084;SHT31;56185;48.526;9.044;2022-12-11T08:52:54;-1.16;76.95
69084;SHT31;56185;48.526;9.044;2022-12-11T08:55:19;-0.93;76.71
69084;SHT31;56185;48.526;9.044;2022-12-11T08:57:44;-0.91;76.28
69084;SHT31;56185;48.526;9.044;2022-12-11T09:00:11;-0.79;76.55
69084;SHT31;56185;48.526;9.044;2022-12-11T09:02:37;-0.65;76.73
69084;SHT31;56185;48.526;9.044;2022-12-11T09:05:03;-0.65;76.04
69084;SHT31;56185;48.526;9.044;2022-12-11T09:07:28;-0.54;75.63
69084;SHT31;56185;48.526;9.044;2022-12-11T09:09:58;-0.54;75.90
69084;SHT31;56185;48.526;9.044;2022-12-11T09:12:23;-0.47;75.58
69084;SHT31;56185;48.526;9.044;2022-12-11T09:14:49;-0.65;76.16
69084;SHT31;56185;48.526;9.044;2022-12-11T09:17:14;-0.61;76.05
69084;SHT31;56185;48.526;9.044;2022-12-11T09:19:39;-0.68;76.94
69084;SHT31;56185;48.526;9.044;2022-12-11T09:22:04;-0.58;76.61
69084;SHT31;56185;48.526;9.044;2022-12-11T09:24:30;-0.55;76.56
69084;SHT31;56185;48.526;9.044;2022-12-11T09:26:55;-0.68;76.23
69084;SHT31;56185;48.526;9.044;2022-12-11T09:29:20;-0.75;76.58
69084;SHT31;56185;48.526;9.044;2022-12-11T09:31:47;-0.71;77.05
69084;SHT31;56185;48.526;9.044;2022-12-11T09:34:15;-0.75;77.15
69084;SHT31;56185;48.526;9.044;2022-12-11T09:36:41;-0.75;77.14
69084;SHT31;56185;48.526;9.044;2022-12-11T09:39:07;-0.91;77.65
69084;SHT31;56185;48.526;9.044;2022-12-11T09:41:36;-0.86;77.52
69084;SHT31;56185;48.526;9.044;2022-12-11T09:44:30;-0.73;77.31
69084;SHT31;56185;48.526;9.044;2022-12-11T09:46:57;-0.69;76.91
69084;SHT31;56185;48.526;9.044;2022-12-11T09:49:40;-0.62;76.83
69084;SHT31;56185;48.526;9.044;2022-12-11T09:52:18;-0.66;77.03
69084;SHT31;56185;48.526;9.044;2022-12-11T09:54:49;-0.69;77.09
69084;SHT31;56185;48.526;9.044;2022-12-11T09:57:26;-0.62;76.98
69084;SHT31;56185;48.526;9.044;2022-12-11T10:00:05;-0.57;75.53
69084;SHT31;56185;48.526;9.044;2022-12-11T10:05:25;-0.54;75.44
69084;SHT31;56185;48.526;9.044;2022-12-11T10:08:08;-0.60;75.53
69084;SHT31;56185;48.526;9.044;2022-12-11T10:10:40;-0.47;76.33
69084;SHT31;56185;48.526;9.044;2022-12-11T10:13:32;-0.42;74.82
69084;SHT31;56185;48.526;9.044;2022-12-11T10:16:27;-0.32;74.64
69084;SHT31;56185;48.526;9.044;2022-12-11T10:18:58;-0.27;75.22
69084;SHT31;56185;48.526;9.044;2022-12-11T10:21:25;-0.23;74.51
69084;SHT31;56185;48.526;9.044;2022-12-11T10:24:01;-0.24;73.87
69084;SHT31;56185;48.526;9.044;2022-12-11T10:26:29;-0.17;75.00
69084;SHT31;56185;48.526;9.044;2022-12-11T10:28:58;-0.13;74.57
69084;SHT31;56185;48.526;9.044;2022-12-11T10:31:49;-0.13;74.17
69084;SHT31;56185;48.526;9.044;2022-12-11T10:34:35;-0.15;73.70
69084;SHT31;56185;48.526;9.044;2022-12-11T10:37:01;-0.11;74.36
69084;SHT31;56185;48.526;9.044;2022-12-11T10:39:26;0.04;74.34
69084;SHT31;56185;48.526;9.044;2022-12-11T10:41:54;0.00;74.93
69084;SHT31;56185;48.526;9.044;2022-12-11T10:44:24;0.01;75.03
69084;SHT31;56185;48.526;9.044;2022-12-11T10:47:05;-0.27;75.13
69084;SHT31;56185;48.526;9.044;2022-12-11T10:49:32;-0.09;75.11
69084;SHT31;56185;48.526;9.044;2022-12-11T10:51:58;0.06;75.55
69084;SHT31;56185;48.526;9.044;2022-12-11T10:57:01;0.15;74.27
69084;SHT31;56185;48.526;9.044;2022-12-11T10:59:33;0.25;74.33
69084;SHT31;56185;48.526;9.044;2022-12-11T11:02:00;0.18;74.11
69084;SHT31;56185;48.526;9.044;2022-12-11T11:04:33;0.29;74.05
69084;SHT31;56185;48.526;9.044;2022-12-11T11:07:11;0.27;73.78
69084;SHT31;56185;48.526;9.044;2022-12-11T11:09:36;0.41;74.04
69084;SHT31;56185;48.526;9.044;2022-12-11T11:12:02;0.31;74.05
69084;SHT31;56185;48.526;9.044;2022-12-11T11:14:28;0.40;73.58
69084;SHT31;56185;48.526;9.044;2022-12-11T11:16:56;0.31;73.57
69084;SHT31;56185;48.526;9.044;2022-12-11T11:19:34;0.44;73.20
69084;SHT31;56185;48.526;9.044;2022-12-11T11:22:03;0.55;73.66
69084;SHT31;56185;48.526;9.044;2022-12-11T11:24:35;0.47;73.49
69084;SHT31;56185;48.526;9.044;2022-12-11T11:27:02;0.55;74.01
69084;SHT31;56185;48.526;9.044;2022-12-11T11:29:32;0.61;73.36
69084;SHT31;56185;48.526;9.044;2022-12-11T11:32:18;0.31;73.03
69084;SHT31;56185;48.526;9.044;2022-12-11T11:34:44;0.61;72.84
69084;SHT31;56185;48.526;9.044;2022-12-11T11:37:32;0.75;73.00
69084;SHT31;56185;48.526;9.044;2022-12-11T11:45:56;0.73;73.70
69084;SHT31;56185;48.526;9.044;2022-12-11T11:51:12;0.89;73.14
69084;SHT31;56185;48.526;9.044;2022-12-11T11:53:38;0.86;73.32
69084;SHT31;56185;48.526;9.044;2022-12-11T11:56:24;0.79;73.71
69084;SHT31;56185;48.526;9.044;2022-12-11T11:59:18;0.85;74.54
69084;SHT31;56185;48.526;9.044;2022-12-11T12:01:45;0.89;73.54
69084;SHT31;56185;48.526;9.044;2022-12-11T12:04:11;0.89;74.03
69084;SHT31;56185;48.526;9.044;2022-12-11T12:07:06;0.87;74.32
69084;SHT31;56185;48.526;9.044;2022-12-11T12:17:59;0.99;73.28
69084;SHT31;56185;48.526;9.044;2022-12-11T12:20:42;0.99;74.01
69084;SHT31;56185;48.526;9.044;2022-12-11T12:23:39;1.16;74.18
69084;SHT31;56185;48.526;9.044;2022-12-11T12:26:14;1.07;73.52
69084;SHT31;56185;48.526;9.044;2022-12-11T12:29:02;1.13;73.35
69084;SHT31;56185;48.526;9.044;2022-12-11T12:31:54;1.07;73.06
69084;SHT31;56185;48.526;9.044;2022-12-11T12:40:38;1.23;72.92
69084;SHT31;56185;48.526;9.044;2022-12-11T12:43:21;1.28;72.84
69084;SHT31;56185;48.526;9.044;2022-12-11T12:48:33;1.03;72.72
69084;SHT31;56185;48.526;9.044;2022-12-11T12:50:58;0.96;73.46
69084;SHT31;56185;48.526;9.044;2022-12-11T12:53:27;1.17;73.35
69084;SHT31;56185;48.526;9.044;2022-12-11T12:55:54;1.23;73.73
69084;SHT31;56185;48.526;9.044;2022-12-11T13:01:15;1.28;73.14
69084;SHT31;56185;48.526;9.044;2022-12-11T13:03:59;1.23;72.95
69084;SHT31;56185;48.526;9.044;2022-12-11T13:09:25;1.31;72.97
69084;SHT31;56185;48.526;9.044;2022-12-11T13:11:53;1.27;73.12
69084;SHT31;56185;48.526;9.044;2022-12-11T13:16:46;1.36;72.94
69084;SHT31;56185;48.526;9.044;2022-12-11T13:22:03;1.23;72.47
69084;SHT31;56185;48.526;9.044;2022-12-11T13:24:31;1.38;72.45
69084;SHT31;56185;48.526;9.044;2022-12-11T13:27:08;1.46;73.04
69084;SHT31;56185;48.526;9.044;2022-12-11T13:29:36;1.47;72.63
69084;SHT31;56185;48.526;9.044;2022-12-11T13:32:20;1.52;71.75
69084;SHT31;56185;48.526;9.044;2022-12-11T13:34:57;1.46;71.43
69084;SHT31;56185;48.526;9.044;2022-12-11T13:37:32;1.38;71.45
69084;SHT31;56185;48.526;9.044;2022-12-11T13:40:02;1.46;71.62
69084;SHT31;56185;48.526;9.044;2022-12-11T13:42:34;1.47;72.57
69084;SHT31;56185;48.526;9.044;2022-12-11T13:45:00;1.46;71.65
69084;SHT31;56185;48.526;9.044;2022-12-11T13:47:27;1.54;71.10
69084;SHT31;56185;48.526;9.044;2022-12-11T13:50:11;1.55;71.57
69084;SHT31;56185;48.526;9.044;2022-12-11T13:52:37;1.57;71.50
69084;SHT31;56185;48.526;9.044;2022-12-11T13:55:16;1.57;71.91
69084;SHT31;56185;48.526;9.044;2022-12-11T13:57:45;1.59;71.49
69084;SHT31;56185;48.526;9.044;2022-12-11T14:00:24;1.50;70.85
69084;SHT31;56185;48.526;9.044;2022-12-11T14:02:51;1.54;70.70
69084;SHT31;56185;48.526;9.044;2022-12-11T14:05:17;1.47;70.80
69084;SHT31;56185;48.526;9.044;2022-12-11T14:07:47;1.51;70.71
69084;SHT31;56185;48.526;9.044;2022-12-11T14:12:42;1.62;70.10
69084;SHT31;56185;48.526;9.044;2022-12-11T14:15:12;1.67;68.56
69084;SHT31;56185;48.526;9.044;2022-12-11T14:17:40;1.64;68.77
69084;SHT31;56185;48.526;9.044;2022-12-11T14:20:16;1.67;68.23
69084;SHT31;56185;48.526;9.044;2022-12-11T14:22:42;1.64;69.02
69084;SHT31;56185;48.526;9.044;2022-12-11T14:25:23;1.69;69.13
69084;SHT31;56185;48.526;9.044;2022-12-11T14:27:51;1.72;67.76
69084;SHT31;56185;48.526;9.044;2022-12-11T14:30:23;1.69;68.26
69084;SHT31;56185;48.526;9.044;2022-12-11T14:32:48;1.65;68.59
69084;SHT31;56185;48.526;9.044;2022-12-11T14:35:41;1.64;69.04
69084;SHT31;56185;48.526;9.044;2022-12-11T14:38:15;1.55;69.30
69084;SHT31;56185;48.526;9.044;2022-12-11T14:40:44;1.52;69.29
69084;SHT31;56185;48.526;9.044;2022-12-11T14:43:29;1.51;69.80
69084;SHT31;56185;48.526;9.044;2022-12-11T14:45:59;1.48;70.61
69084;SHT31;56185;48.526;9.044;2022-12-11T14:48:32;1.51;70.95
69084;SHT31;56185;48.526;9.044;2022-12-11T14:51:02;1.54;70.57
69084;SHT31;56185;48.526;9.044;2022-12-11T14:53:34;1.55;70.61
69084;SHT31;56185;48.526;9.044;2022-12-11T14:56:02;1.50;71.05
69084;SHT31;56185;48.526;9.044;2022-12-11T14:58:28;1.47;71.57
69084;SHT31;56185;48.526;9.044;2022-12-11T15:03:31;1.50;71.42
69084;SHT31;56185;48.526;9.044;2022-12-11T15:05:57;1.47;71.29
69084;SHT31;56185;48.526;9.044;2022-12-11T15:11:06;1.43;71.04
69084;SHT31;56185;48.526;9.044;2022-12-11T15:13:34;1.40;71.36
69084;SHT31;56185;48.526;9.044;2022-12-11T15:16:01;1.46;71.67
69084;SHT31;56185;48.526;9.044;2022-12-11T15:18:33;1.37;71.28
69084;SHT31;56185;48.526;9.044;2022-12-11T15:21:02;1.50;71.07
69084;SHT31;56185;48.526;9.044;2022-12-11T15:23:28;1.38;72.00
69084;SHT31;56185;48.526;9.044;2022-12-11T15:25:56;1.34;71.89
69084;SHT31;56185;48.526;9.044;2022-12-11T15:28:35;1.28;71.94
69084;SHT31;56185;48.526;9.044;2022-12-11T15:31:04;1.27;71.97
69084;SHT31;56185;48.526;9.044;2022-12-11T15:33:29;1.33;72.36
69084;SHT31;56185;48.526;9.044;2022-12-11T15:35:58;1.30;71.95
69084;SHT31;56185;48.526;9.044;2022-12-11T15:38:37;1.26;71.62
69084;SHT31;56185;48.526;9.044;2022-12-11T15:41:03;1.27;71.16
69084;SHT31;56185;48.526;9.044;2022-12-11T15:43:31;1.30;71.44
69084;SHT31;56185;48.526;9.044;2022-12-11T15:45:58;1.26;71.99
69084;SHT31;56185;48.526;9.044;2022-12-11T15:48:23;1.27;72.32
69084;SHT31;56185;48.526;9.044;2022-12-11T15:50:48;1.19;73.28
69084;SHT31;56185;48.526;9.044;2022-12-11T15:53:14;1.07;73.58
69084;SHT31;56185;48.526;9.044;2022-12-11T15:55:39;1.13;73.57
69084;SHT31;56185;48.526;9.044;2022-12-11T15:58:07;1.09;73.62
69084;SHT31;56185;48.526;9.044;2022-12-11T16:00:32;1.16;74.04
69084;SHT31;56185;48.526;9.044;2022-12-11T16:02:58;1.19;73.32
69084;SHT31;56185;48.526;9.044;2022-12-11T16:05:24;1.16;73.14
69084;SHT31;56185;48.526;9.044;2022-12-11T16:07:49;1.10;73.92
69084;SHT31;56185;48.526;9.044;2022-12-11T16:10:17;1.16;74.09
69084;SHT31;56185;48.526;9.044;2022-12-11T16:12:43;1.19;74.11
69084;SHT31;56185;48.526;9.044;2022-12-11T16:15:10;1.07;74.64
69084;SHT31;56185;48.526;9.044;2022-12-11T16:17:35;1.12;74.32
69084;SHT31;56185;48.526;9.044;2022-12-11T16:20:01;1.13;74.26
69084;SHT31;56185;48.526;9.044;2022-12-11T16:22:26;1.15;74.17
69084;SHT31;56185;48.526;9.044;2022-12-11T16:24:53;1.20;74.41
69084;SHT31;56185;48.526;9.044;2022-12-11T16:27:18;1.15;74.31
69084;SHT31;56185;48.526;9.044;2022-12-11T16:29:43;1.12;74.55
69084;SHT31;56185;48.526;9.044;2022-12-11T16:32:09;1.15;74.31
69084;SHT31;56185;48.526;9.044;2022-12-11T16:34:35;1.15;74.91
69084;SHT31;56185;48.526;9.044;2022-12-11T16:37:02;1.01;75.18
69084;SHT31;56185;48.526;9.044;2022-12-11T16:39:27;1.07;75.23
69084;SHT31;56185;48.526;9.044;2022-12-11T16:41:53;1.01;74.63
69084;SHT31;56185;48.526;9.044;2022-12-11T16:44:20;1.12;74.91